Alpha, Minnesota
Current Conditions -  °F | °C
As of 3:54 AM on Saturday 29 Nov 2014 (Local Time) from KMJQ Reporting Station
Clear Clear  
Wind Chill: -5°   Ceiling: Unl
Heat Index: -5°   Visibility: 7mi
Dew Point: -6°   Wind: 3mph
Humidity: 93%   Direction: 160°SSE
Pressure: 29.49"   Gusts: NA
Location:  43.64°N, 94.87°W
Report Text: KMJQ 290954Z AUTO 16003KT 7SM CLR M05/M06 A2949 RMK AO2
Loading
Personal Weather Stations






























Interactive Weather Map New forecast layout! Learn more

10-Day Weather Forecast

Advertisements
Track Severe Weather on mobile